EGPI/ILY METAR and TAF weather

Enter ICAO airport designator
Station Type Date Time Source
EGPI METAR 2021/03/05 01:20 UTC NOAA

EGPI 050120Z AUTO 09009KT 9999 NCD 00/M03 Q1033


Station Type Date Time Source
EGPI Decoded METAR 2021/03/05 01:20 UTC NOAA

Islay, United Kingdom (EGPI) 55-40-55N 006-15-24W
Mar 04, 2021 - 08:20 PM EST / 2021.03.05 0120 UTC
Wind: from the E (090 degrees) at 10 MPH (9 KT):0
Visibility: greater than 7 mile(s):0
Temperature: 32 F (0 C)
Windchill: 23 F (-5 C):1
Dew Point: 26 F (-3 C)
Relative Humidity: 80%
Pressure (altimeter): 30.50 in. Hg (1033 hPa)
ob: EGPI 050120Z AUTO 09009KT 9999 NCD 00/M03 Q1033
cycle: 1

Station Type Date Time Source
EGPI TAF UTC NOAA

Error!

Example: see airport list